sensor_id;sensor_type;location;lat;lon;timestamp;P1;durP1;ratioP1;P2;durP2;ratioP2
60831;SDS011;46665;51.558;-0.448;2023-04-24T00:02:14;12.90;;;8.63;;
60831;SDS011;46665;51.558;-0.448;2023-04-24T00:04:41;11.65;;;7.13;;
60831;SDS011;46665;51.558;-0.448;2023-04-24T00:07:09;16.55;;;8.38;;
60831;SDS011;46665;51.558;-0.448;2023-04-24T00:09:36;15.27;;;6.88;;
60831;SDS011;46665;51.558;-0.448;2023-04-24T00:12:01;13.10;;;8.32;;
60831;SDS011;46665;51.558;-0.448;2023-04-24T00:14:29;11.90;;;7.15;;
60831;SDS011;46665;51.558;-0.448;2023-04-24T00:16:55;11.15;;;7.10;;
60831;SDS011;46665;51.558;-0.448;2023-04-24T00:19:21;14.25;;;7.60;;
60831;SDS011;46665;51.558;-0.448;2023-04-24T00:21:47;14.38;;;7.90;;
60831;SDS011;46665;51.558;-0.448;2023-04-24T00:24:15;18.80;;;7.75;;
60831;SDS011;46665;51.558;-0.448;2023-04-24T00:26:41;15.55;;;8.98;;
60831;SDS011;46665;51.558;-0.448;2023-04-24T00:29:06;10.52;;;6.75;;
60831;SDS011;46665;51.558;-0.448;2023-04-24T00:31:32;13.15;;;7.22;;
60831;SDS011;46665;51.558;-0.448;2023-04-24T00:33:59;15.88;;;7.40;;
60831;SDS011;46665;51.558;-0.448;2023-04-24T00:36:25;14.20;;;6.63;;
60831;SDS011;46665;51.558;-0.448;2023-04-24T00:38:52;12.48;;;7.40;;
60831;SDS011;46665;51.558;-0.448;2023-04-24T00:41:17;14.80;;;8.45;;
60831;SDS011;46665;51.558;-0.448;2023-04-24T00:43:43;9.52;;;6.63;;
60831;SDS011;46665;51.558;-0.448;2023-04-24T00:46:09;12.98;;;7.47;;
60831;SDS011;46665;51.558;-0.448;2023-04-24T00:48:35;15.60;;;6.47;;
60831;SDS011;46665;51.558;-0.448;2023-04-24T00:51:02;12.75;;;6.35;;
60831;SDS011;46665;51.558;-0.448;2023-04-24T00:53:27;14.25;;;6.72;;
60831;SDS011;46665;51.558;-0.448;2023-04-24T00:55:53;10.10;;;6.22;;
60831;SDS011;46665;51.558;-0.448;2023-04-24T00:58:18;17.50;;;8.23;;
60831;SDS011;46665;51.558;-0.448;2023-04-24T01:00:44;18.38;;;8.40;;
60831;SDS011;46665;51.558;-0.448;2023-04-24T01:03:10;9.85;;;6.38;;
60831;SDS011;46665;51.558;-0.448;2023-04-24T01:05:35;17.77;;;8.10;;
60831;SDS011;46665;51.558;-0.448;2023-04-24T01:08:01;16.77;;;8.18;;
60831;SDS011;46665;51.558;-0.448;2023-04-24T01:10:27;11.02;;;7.72;;
60831;SDS011;46665;51.558;-0.448;2023-04-24T01:12:56;12.35;;;7.35;;
60831;SDS011;46665;51.558;-0.448;2023-04-24T01:15:23;18.95;;;7.22;;
60831;SDS011;46665;51.558;-0.448;2023-04-24T01:17:48;14.27;;;6.97;;
60831;SDS011;46665;51.558;-0.448;2023-04-24T01:20:13;13.00;;;8.10;;
60831;SDS011;46665;51.558;-0.448;2023-04-24T01:22:40;13.93;;;7.80;;
60831;SDS011;46665;51.558;-0.448;2023-04-24T01:25:06;14.40;;;7.40;;
60831;SDS011;46665;51.558;-0.448;2023-04-24T01:27:32;11.52;;;7.63;;
60831;SDS011;46665;51.558;-0.448;2023-04-24T01:29:58;12.50;;;6.82;;
60831;SDS011;46665;51.558;-0.448;2023-04-24T01:32:23;10.98;;;7.18;;
60831;SDS011;46665;51.558;-0.448;2023-04-24T01:34:49;14.88;;;6.75;;
60831;SDS011;46665;51.558;-0.448;2023-04-24T01:37:15;12.00;;;7.07;;
60831;SDS011;46665;51.558;-0.448;2023-04-24T01:39:41;11.07;;;6.68;;
60831;SDS011;46665;51.558;-0.448;2023-04-24T01:42:08;19.30;;;6.32;;
60831;SDS011;46665;51.558;-0.448;2023-04-24T01:44:33;11.32;;;7.25;;
60831;SDS011;46665;51.558;-0.448;2023-04-24T01:47:00;12.48;;;7.97;;
60831;SDS011;46665;51.558;-0.448;2023-04-24T01:49:26;15.00;;;7.43;;
60831;SDS011;46665;51.558;-0.448;2023-04-24T01:51:51;13.23;;;7.32;;
60831;SDS011;46665;51.558;-0.448;2023-04-24T01:54:17;10.80;;;6.95;;
60831;SDS011;46665;51.558;-0.448;2023-04-24T01:56:42;11.32;;;6.80;;
60831;SDS011;46665;51.558;-0.448;2023-04-24T01:59:09;8.57;;;6.20;;
60831;SDS011;46665;51.558;-0.448;2023-04-24T02:01:36;11.57;;;7.47;;
60831;SDS011;46665;51.558;-0.448;2023-04-24T02:04:02;10.75;;;6.18;;
60831;SDS011;46665;51.558;-0.448;2023-04-24T02:06:31;8.63;;;6.13;;
60831;SDS011;46665;51.558;-0.448;2023-04-24T02:08:58;8.88;;;5.75;;
60831;SDS011;46665;51.558;-0.448;2023-04-24T02:11:24;12.77;;;7.72;;
60831;SDS011;46665;51.558;-0.448;2023-04-24T02:13:49;13.85;;;7.65;;
60831;SDS011;46665;51.558;-0.448;2023-04-24T02:16:16;8.05;;;5.93;;
60831;SDS011;46665;51.558;-0.448;2023-04-24T02:18:42;14.48;;;7.72;;
60831;SDS011;46665;51.558;-0.448;2023-04-24T02:21:07;10.52;;;6.90;;
60831;SDS011;46665;51.558;-0.448;2023-04-24T02:23:33;7.15;;;5.40;;
60831;SDS011;46665;51.558;-0.448;2023-04-24T02:25:58;11.60;;;6.97;;
60831;SDS011;46665;51.558;-0.448;2023-04-24T02:28:24;12.20;;;7.28;;
60831;SDS011;46665;51.558;-0.448;2023-04-24T02:30:49;15.70;;;7.60;;
60831;SDS011;46665;51.558;-0.448;2023-04-24T02:33:15;9.63;;;6.82;;
60831;SDS011;46665;51.558;-0.448;2023-04-24T02:35:41;11.93;;;6.57;;
60831;SDS011;46665;51.558;-0.448;2023-04-24T02:38:06;11.43;;;6.53;;
60831;SDS011;46665;51.558;-0.448;2023-04-24T02:40:32;9.60;;;6.53;;
60831;SDS011;46665;51.558;-0.448;2023-04-24T02:42:57;12.70;;;7.10;;
60831;SDS011;46665;51.558;-0.448;2023-04-24T02:45:22;15.18;;;7.22;;
60831;SDS011;46665;51.558;-0.448;2023-04-24T02:47:48;9.10;;;6.07;;
60831;SDS011;46665;51.558;-0.448;2023-04-24T02:50:13;9.73;;;5.80;;
60831;SDS011;46665;51.558;-0.448;2023-04-24T02:52:39;10.25;;;6.57;;
60831;SDS011;46665;51.558;-0.448;2023-04-24T02:55:04;12.07;;;7.05;;
60831;SDS011;46665;51.558;-0.448;2023-04-24T02:57:30;13.35;;;5.63;;
60831;SDS011;46665;51.558;-0.448;2023-04-24T02:59:55;9.23;;;6.10;;
60831;SDS011;46665;51.558;-0.448;2023-04-24T03:02:21;10.70;;;6.50;;
60831;SDS011;46665;51.558;-0.448;2023-04-24T03:04:46;17.30;;;7.57;;
60831;SDS011;46665;51.558;-0.448;2023-04-24T03:07:13;10.80;;;6.35;;
60831;SDS011;46665;51.558;-0.448;2023-04-24T03:09:39;9.60;;;7.07;;
60831;SDS011;46665;51.558;-0.448;2023-04-24T03:12:05;13.35;;;6.97;;
60831;SDS011;46665;51.558;-0.448;2023-04-24T03:14:31;11.07;;;6.95;;
60831;SDS011;46665;51.558;-0.448;2023-04-24T03:16:56;9.45;;;5.07;;
60831;SDS011;46665;51.558;-0.448;2023-04-24T03:19:22;7.18;;;5.78;;
60831;SDS011;46665;51.558;-0.448;2023-04-24T03:21:47;7.47;;;6.00;;
60831;SDS011;46665;51.558;-0.448;2023-04-24T03:24:13;12.25;;;6.55;;
60831;SDS011;46665;51.558;-0.448;2023-04-24T03:26:38;16.30;;;5.53;;
60831;SDS011;46665;51.558;-0.448;2023-04-24T03:29:04;10.45;;;5.78;;
60831;SDS011;46665;51.558;-0.448;2023-04-24T03:31:29;10.00;;;5.72;;
60831;SDS011;46665;51.558;-0.448;2023-04-24T03:33:55;12.30;;;7.30;;
60831;SDS011;46665;51.558;-0.448;2023-04-24T03:36:20;14.38;;;6.40;;
60831;SDS011;46665;51.558;-0.448;2023-04-24T03:38:46;30.13;;;7.55;;
60831;SDS011;46665;51.558;-0.448;2023-04-24T03:41:11;15.07;;;6.93;;
60831;SDS011;46665;51.558;-0.448;2023-04-24T03:43:37;8.45;;;6.18;;
60831;SDS011;46665;51.558;-0.448;2023-04-24T03:46:03;8.00;;;5.63;;
60831;SDS011;46665;51.558;-0.448;2023-04-24T03:48:28;9.80;;;5.43;;
60831;SDS011;46665;51.558;-0.448;2023-04-24T03:50:54;7.50;;;4.47;;
60831;SDS011;46665;51.558;-0.448;2023-04-24T03:53:19;11.90;;;6.20;;
60831;SDS011;46665;51.558;-0.448;2023-04-24T03:55:45;9.52;;;6.00;;
60831;SDS011;46665;51.558;-0.448;2023-04-24T03:58:11;8.35;;;5.05;;
60831;SDS011;46665;51.558;-0.448;2023-04-24T04:00:38;12.07;;;6.85;;
60831;SDS011;46665;51.558;-0.448;2023-04-24T04:03:05;12.45;;;6.25;;
60831;SDS011;46665;51.558;-0.448;2023-04-24T04:05:30;9.52;;;5.57;;
60831;SDS011;46665;51.558;-0.448;2023-04-24T04:07:56;10.30;;;6.13;;
60831;SDS011;46665;51.558;-0.448;2023-04-24T04:10:21;11.75;;;6.63;;
60831;SDS011;46665;51.558;-0.448;2023-04-24T04:12:47;9.10;;;6.38;;
60831;SDS011;46665;51.558;-0.448;2023-04-24T04:15:12;9.15;;;6.00;;
60831;SDS011;46665;51.558;-0.448;2023-04-24T04:17:38;10.13;;;6.70;;
60831;SDS011;46665;51.558;-0.448;2023-04-24T04:20:03;13.95;;;6.22;;
60831;SDS011;46665;51.558;-0.448;2023-04-24T04:22:35;10.77;;;6.40;;
60831;SDS011;46665;51.558;-0.448;2023-04-24T04:25:01;9.48;;;6.45;;
60831;SDS011;46665;51.558;-0.448;2023-04-24T04:27:26;7.78;;;5.40;;
60831;SDS011;46665;51.558;-0.448;2023-04-24T04:29:51;10.50;;;5.25;;
60831;SDS011;46665;51.558;-0.448;2023-04-24T04:32:17;10.57;;;6.15;;
60831;SDS011;46665;51.558;-0.448;2023-04-24T04:34:43;10.43;;;6.30;;
60831;SDS011;46665;51.558;-0.448;2023-04-24T04:37:10;16.20;;;6.75;;
60831;SDS011;46665;51.558;-0.448;2023-04-24T04:39:37;7.15;;;5.28;;
60831;SDS011;46665;51.558;-0.448;2023-04-24T04:42:03;10.70;;;6.07;;
60831;SDS011;46665;51.558;-0.448;2023-04-24T04:44:28;8.13;;;4.97;;
60831;SDS011;46665;51.558;-0.448;2023-04-24T04:46:55;12.10;;;6.35;;
60831;SDS011;46665;51.558;-0.448;2023-04-24T04:49:21;10.27;;;6.20;;
60831;SDS011;46665;51.558;-0.448;2023-04-24T04:51:48;9.30;;;6.00;;
60831;SDS011;46665;51.558;-0.448;2023-04-24T04:54:15;10.13;;;6.93;;
60831;SDS011;46665;51.558;-0.448;2023-04-24T04:56:41;14.30;;;5.43;;
60831;SDS011;46665;51.558;-0.448;2023-04-24T04:59:07;13.07;;;5.35;;
60831;SDS011;46665;51.558;-0.448;2023-04-24T05:01:32;10.30;;;6.38;;
60831;SDS011;46665;51.558;-0.448;2023-04-24T05:03:58;8.38;;;5.93;;
60831;SDS011;46665;51.558;-0.448;2023-04-24T05:06:23;8.55;;;5.53;;
60831;SDS011;46665;51.558;-0.448;2023-04-24T05:08:48;9.32;;;5.45;;
60831;SDS011;46665;51.558;-0.448;2023-04-24T05:11:14;7.40;;;5.82;;
60831;SDS011;46665;51.558;-0.448;2023-04-24T05:13:40;8.40;;;5.20;;
60831;SDS011;46665;51.558;-0.448;2023-04-24T05:16:05;7.38;;;4.85;;
60831;SDS011;46665;51.558;-0.448;2023-04-24T05:18:31;15.13;;;5.38;;
60831;SDS011;46665;51.558;-0.448;2023-04-24T05:20:56;6.88;;;4.18;;
60831;SDS011;46665;51.558;-0.448;2023-04-24T05:23:22;5.93;;;5.18;;
60831;SDS011;46665;51.558;-0.448;2023-04-24T05:25:47;7.97;;;5.40;;
60831;SDS011;46665;51.558;-0.448;2023-04-24T05:28:13;9.60;;;5.80;;
60831;SDS011;46665;51.558;-0.448;2023-04-24T05:30:38;8.68;;;4.60;;
60831;SDS011;46665;51.558;-0.448;2023-04-24T05:33:04;20.20;;;6.22;;
60831;SDS011;46665;51.558;-0.448;2023-04-24T05:35:29;14.65;;;6.43;;
60831;SDS011;46665;51.558;-0.448;2023-04-24T05:37:54;9.75;;;4.05;;
60831;SDS011;46665;51.558;-0.448;2023-04-24T05:40:20;7.15;;;4.45;;
60831;SDS011;46665;51.558;-0.448;2023-04-24T05:42:45;6.35;;;3.45;;
60831;SDS011;46665;51.558;-0.448;2023-04-24T05:45:10;6.07;;;3.38;;
60831;SDS011;46665;51.558;-0.448;2023-04-24T05:47:41;6.95;;;3.60;;
60831;SDS011;46665;51.558;-0.448;2023-04-24T05:50:07;4.60;;;2.85;;
60831;SDS011;46665;51.558;-0.448;2023-04-24T05:52:32;5.95;;;2.75;;
60831;SDS011;46665;51.558;-0.448;2023-04-24T05:54:58;3.35;;;2.53;;
60831;SDS011;46665;51.558;-0.448;2023-04-24T05:57:23;3.35;;;2.40;;
60831;SDS011;46665;51.558;-0.448;2023-04-24T05:59:49;4.47;;;2.75;;
60831;SDS011;46665;51.558;-0.448;2023-04-24T06:02:14;4.47;;;2.53;;
60831;SDS011;46665;51.558;-0.448;2023-04-24T06:04:40;4.07;;;2.08;;
60831;SDS011;46665;51.558;-0.448;2023-04-24T06:07:06;15.38;;;3.35;;
60831;SDS011;46665;51.558;-0.448;2023-04-24T06:09:31;4.88;;;2.28;;
60831;SDS011;46665;51.558;-0.448;2023-04-24T06:11:57;9.13;;;2.60;;
60831;SDS011;46665;51.558;-0.448;2023-04-24T06:14:23;4.63;;;1.85;;
60831;SDS011;46665;51.558;-0.448;2023-04-24T06:16:49;2.42;;;1.73;;
60831;SDS011;46665;51.558;-0.448;2023-04-24T06:19:14;1.80;;;1.35;;
60831;SDS011;46665;51.558;-0.448;2023-04-24T06:21:39;2.15;;;1.58;;
60831;SDS011;46665;51.558;-0.448;2023-04-24T06:24:05;2.30;;;1.17;;
60831;SDS011;46665;51.558;-0.448;2023-04-24T06:26:30;8.75;;;2.00;;
60831;SDS011;46665;51.558;-0.448;2023-04-24T06:28:56;3.25;;;1.58;;
60831;SDS011;46665;51.558;-0.448;2023-04-24T06:31:23;7.18;;;1.27;;
60831;SDS011;46665;51.558;-0.448;2023-04-24T06:33:49;8.02;;;1.35;;
60831;SDS011;46665;51.558;-0.448;2023-04-24T06:36:14;8.52;;;1.48;;
60831;SDS011;46665;51.558;-0.448;2023-04-24T06:38:40;0.85;;;0.68;;
60831;SDS011;46665;51.558;-0.448;2023-04-24T06:41:06;2.42;;;0.73;;
60831;SDS011;46665;51.558;-0.448;2023-04-24T06:43:31;5.47;;;0.95;;
60831;SDS011;46665;51.558;-0.448;2023-04-24T06:45:57;0.70;;;0.60;;
60831;SDS011;46665;51.558;-0.448;2023-04-24T06:48:24;4.07;;;1.23;;
60831;SDS011;46665;51.558;-0.448;2023-04-24T06:50:50;3.88;;;0.95;;
60831;SDS011;46665;51.558;-0.448;2023-04-24T06:53:16;2.05;;;0.70;;
60831;SDS011;46665;51.558;-0.448;2023-04-24T06:55:41;3.78;;;1.08;;
60831;SDS011;46665;51.558;-0.448;2023-04-24T06:58:08;6.60;;;1.25;;
60831;SDS011;46665;51.558;-0.448;2023-04-24T07:00:33;2.70;;;1.27;;
60831;SDS011;46665;51.558;-0.448;2023-04-24T07:02:59;2.20;;;1.13;;
60831;SDS011;46665;51.558;-0.448;2023-04-24T07:05:25;3.25;;;0.82;;
60831;SDS011;46665;51.558;-0.448;2023-04-24T07:07:50;1.67;;;0.60;;
60831;SDS011;46665;51.558;-0.448;2023-04-24T07:10:16;0.88;;;0.88;;
60831;SDS011;46665;51.558;-0.448;2023-04-24T07:12:41;1.00;;;0.68;;
60831;SDS011;46665;51.558;-0.448;2023-04-24T07:15:07;2.60;;;0.60;;
60831;SDS011;46665;51.558;-0.448;2023-04-24T07:17:33;1.88;;;1.02;;
60831;SDS011;46665;51.558;-0.448;2023-04-24T07:19:59;0.80;;;0.73;;
60831;SDS011;46665;51.558;-0.448;2023-04-24T07:22:25;1.77;;;0.90;;
60831;SDS011;46665;51.558;-0.448;2023-04-24T07:24:50;0.65;;;0.65;;
60831;SDS011;46665;51.558;-0.448;2023-04-24T07:27:16;5.05;;;1.30;;
60831;SDS011;46665;51.558;-0.448;2023-04-24T07:29:41;6.18;;;0.82;;
60831;SDS011;46665;51.558;-0.448;2023-04-24T07:32:07;3.28;;;1.13;;
60831;SDS011;46665;51.558;-0.448;2023-04-24T07:34:33;8.45;;;1.35;;
60831;SDS011;46665;51.558;-0.448;2023-04-24T07:36:58;19.17;;;1.08;;
60831;SDS011;46665;51.558;-0.448;2023-04-24T07:39:24;2.00;;;1.20;;
60831;SDS011;46665;51.558;-0.448;2023-04-24T07:41:50;1.13;;;0.50;;
60831;SDS011;46665;51.558;-0.448;2023-04-24T07:44:15;2.38;;;0.70;;
60831;SDS011;46665;51.558;-0.448;2023-04-24T07:46:40;2.65;;;0.90;;
60831;SDS011;46665;51.558;-0.448;2023-04-24T07:49:06;3.30;;;0.93;;
60831;SDS011;46665;51.558;-0.448;2023-04-24T07:51:31;1.58;;;0.75;;
60831;SDS011;46665;51.558;-0.448;2023-04-24T07:54:03;19.48;;;1.77;;
60831;SDS011;46665;51.558;-0.448;2023-04-24T07:56:28;4.55;;;0.98;;
60831;SDS011;46665;51.558;-0.448;2023-04-24T07:58:56;2.15;;;0.70;;
60831;SDS011;46665;51.558;-0.448;2023-04-24T08:01:21;2.15;;;0.70;;
60831;SDS011;46665;51.558;-0.448;2023-04-24T08:03:46;3.42;;;0.90;;
60831;SDS011;46665;51.558;-0.448;2023-04-24T08:06:12;0.90;;;0.40;;
60831;SDS011;46665;51.558;-0.448;2023-04-24T08:08:37;3.60;;;0.90;;
60831;SDS011;46665;51.558;-0.448;2023-04-24T08:11:03;10.13;;;1.27;;
60831;SDS011;46665;51.558;-0.448;2023-04-24T08:13:29;2.33;;;0.57;;
60831;SDS011;46665;51.558;-0.448;2023-04-24T08:15:54;0.63;;;0.63;;
60831;SDS011;46665;51.558;-0.448;2023-04-24T08:18:21;2.03;;;1.00;;
60831;SDS011;46665;51.558;-0.448;2023-04-24T08:20:47;3.22;;;1.20;;
60831;SDS011;46665;51.558;-0.448;2023-04-24T08:23:12;4.15;;;0.77;;
60831;SDS011;46665;51.558;-0.448;2023-04-24T08:25:38;1.05;;;0.55;;
60831;SDS011;46665;51.558;-0.448;2023-04-24T08:28:05;0.63;;;0.63;;
60831;SDS011;46665;51.558;-0.448;2023-04-24T08:30:31;2.15;;;0.75;;
60831;SDS011;46665;51.558;-0.448;2023-04-24T08:32:56;1.10;;;0.88;;
60831;SDS011;46665;51.558;-0.448;2023-04-24T08:35:22;2.38;;;0.80;;
60831;SDS011;46665;51.558;-0.448;2023-04-24T08:37:48;9.65;;;2.25;;
60831;SDS011;46665;51.558;-0.448;2023-04-24T08:40:14;1.73;;;1.00;;
60831;SDS011;46665;51.558;-0.448;2023-04-24T08:42:44;4.57;;;1.05;;
60831;SDS011;46665;51.558;-0.448;2023-04-24T08:45:10;1.30;;;0.77;;
60831;SDS011;46665;51.558;-0.448;2023-04-24T08:47:40;7.22;;;1.10;;
60831;SDS011;46665;51.558;-0.448;2023-04-24T08:50:07;8.60;;;0.98;;
60831;SDS011;46665;51.558;-0.448;2023-04-24T08:52:34;1.15;;;0.60;;
60831;SDS011;46665;51.558;-0.448;2023-04-24T08:55:00;1.77;;;1.25;;
60831;SDS011;46665;51.558;-0.448;2023-04-24T08:57:26;9.40;;;1.13;;
60831;SDS011;46665;51.558;-0.448;2023-04-24T08:59:53;5.70;;;1.75;;
60831;SDS011;46665;51.558;-0.448;2023-04-24T09:02:19;5.95;;;0.47;;
60831;SDS011;46665;51.558;-0.448;2023-04-24T09:04:46;3.95;;;1.02;;
60831;SDS011;46665;51.558;-0.448;2023-04-24T09:07:12;5.95;;;0.93;;
60831;SDS011;46665;51.558;-0.448;2023-04-24T09:09:39;2.28;;;1.15;;
60831;SDS011;46665;51.558;-0.448;2023-04-24T09:12:06;3.83;;;1.13;;
60831;SDS011;46665;51.558;-0.448;2023-04-24T09:14:34;10.43;;;1.40;;
60831;SDS011;46665;51.558;-0.448;2023-04-24T09:17:01;1.67;;;0.70;;
60831;SDS011;46665;51.558;-0.448;2023-04-24T09:19:27;8.05;;;1.45;;
60831;SDS011;46665;51.558;-0.448;2023-04-24T09:21:53;4.00;;;0.95;;
60831;SDS011;46665;51.558;-0.448;2023-04-24T09:24:20;4.95;;;1.20;;
60831;SDS011;46665;51.558;-0.448;2023-04-24T09:26:47;2.22;;;0.70;;
60831;SDS011;46665;51.558;-0.448;2023-04-24T09:29:14;2.47;;;0.77;;
60831;SDS011;46665;51.558;-0.448;2023-04-24T09:31:41;5.90;;;0.80;;
60831;SDS011;46665;51.558;-0.448;2023-04-24T09:34:07;4.53;;;1.05;;
60831;SDS011;46665;51.558;-0.448;2023-04-24T09:36:33;8.30;;;1.02;;
60831;SDS011;46665;51.558;-0.448;2023-04-24T09:39:04;4.57;;;0.90;;
60831;SDS011;46665;51.558;-0.448;2023-04-24T09:41:35;7.78;;;0.93;;
60831;SDS011;46665;51.558;-0.448;2023-04-24T09:44:19;2.97;;;0.77;;
60831;SDS011;46665;51.558;-0.448;2023-04-24T09:46:49;1.75;;;0.93;;
60831;SDS011;46665;51.558;-0.448;2023-04-24T09:49:21;1.00;;;0.68;;
60831;SDS011;46665;51.558;-0.448;2023-04-24T09:51:48;1.02;;;0.70;;
60831;SDS011;46665;51.558;-0.448;2023-04-24T09:54:15;1.73;;;1.13;;
60831;SDS011;46665;51.558;-0.448;2023-04-24T09:56:48;1.67;;;0.90;;
60831;SDS011;46665;51.558;-0.448;2023-04-24T09:59:15;6.95;;;0.70;;
60831;SDS011;46665;51.558;-0.448;2023-04-24T10:01:41;1.88;;;1.08;;
60831;SDS011;46665;51.558;-0.448;2023-04-24T10:06:46;5.65;;;1.08;;
60831;SDS011;46665;51.558;-0.448;2023-04-24T10:09:16;2.47;;;0.80;;
60831;SDS011;46665;51.558;-0.448;2023-04-24T10:11:43;1.45;;;0.75;;
60831;SDS011;46665;51.558;-0.448;2023-04-24T10:14:13;0.50;;;0.50;;
60831;SDS011;46665;51.558;-0.448;2023-04-24T10:16:40;1.58;;;0.60;;
60831;SDS011;46665;51.558;-0.448;2023-04-24T10:19:09;1.05;;;0.45;;
60831;SDS011;46665;51.558;-0.448;2023-04-24T10:21:35;3.63;;;0.90;;
60831;SDS011;46665;51.558;-0.448;2023-04-24T10:24:02;3.00;;;0.85;;
60831;SDS011;46665;51.558;-0.448;2023-04-24T10:26:32;1.35;;;0.60;;
60831;SDS011;46665;51.558;-0.448;2023-04-24T10:28:58;2.65;;;0.60;;
60831;SDS011;46665;51.558;-0.448;2023-04-24T10:31:25;3.05;;;0.85;;
60831;SDS011;46665;51.558;-0.448;2023-04-24T10:33:52;2.33;;;0.63;;
60831;SDS011;46665;51.558;-0.448;2023-04-24T10:36:18;5.05;;;0.60;;
60831;SDS011;46665;51.558;-0.448;2023-04-24T10:38:47;0.30;;;0.28;;
60831;SDS011;46665;51.558;-0.448;2023-04-24T10:41:15;2.33;;;0.60;;
60831;SDS011;46665;51.558;-0.448;2023-04-24T10:43:47;1.02;;;0.52;;
60831;SDS011;46665;51.558;-0.448;2023-04-24T10:46:22;1.27;;;0.82;;
60831;SDS011;46665;51.558;-0.448;2023-04-24T10:48:56;4.07;;;0.50;;
60831;SDS011;46665;51.558;-0.448;2023-04-24T10:51:23;6.20;;;0.98;;
60831;SDS011;46665;51.558;-0.448;2023-04-24T10:53:50;1.13;;;0.82;;
60831;SDS011;46665;51.558;-0.448;2023-04-24T10:56:16;1.08;;;0.60;;
60831;SDS011;46665;51.558;-0.448;2023-04-24T10:58:43;4.45;;;0.85;;
60831;SDS011;46665;51.558;-0.448;2023-04-24T11:01:23;1.50;;;0.80;;
60831;SDS011;46665;51.558;-0.448;2023-04-24T11:03:50;2.47;;;0.60;;
60831;SDS011;46665;51.558;-0.448;2023-04-24T11:06:28;0.90;;;0.65;;
60831;SDS011;46665;51.558;-0.448;2023-04-24T11:11:31;0.60;;;0.52;;
60831;SDS011;46665;51.558;-0.448;2023-04-24T11:16:26;3.50;;;0.82;;
60831;SDS011;46665;51.558;-0.448;2023-04-24T11:19:00;2.58;;;0.70;;
60831;SDS011;46665;51.558;-0.448;2023-04-24T11:21:40;3.28;;;0.60;;
60831;SDS011;46665;51.558;-0.448;2023-04-24T11:24:23;1.00;;;0.38;;
60831;SDS011;46665;51.558;-0.448;2023-04-24T11:26:54;0.85;;;0.60;;
60831;SDS011;46665;51.558;-0.448;2023-04-24T11:29:22;0.95;;;0.70;;
60831;SDS011;46665;51.558;-0.448;2023-04-24T11:31:48;4.05;;;0.77;;
60831;SDS011;46665;51.558;-0.448;2023-04-24T11:34:16;2.50;;;0.90;;
60831;SDS011;46665;51.558;-0.448;2023-04-24T11:36:43;2.33;;;0.60;;
60831;SDS011;46665;51.558;-0.448;2023-04-24T11:39:10;4.32;;;1.27;;
60831;SDS011;46665;51.558;-0.448;2023-04-24T11:41:36;0.75;;;0.63;;
60831;SDS011;46665;51.558;-0.448;2023-04-24T11:44:02;1.73;;;0.80;;
60831;SDS011;46665;51.558;-0.448;2023-04-24T11:46:30;0.73;;;0.57;;
60831;SDS011;46665;51.558;-0.448;2023-04-24T11:48:56;3.85;;;0.88;;
60831;SDS011;46665;51.558;-0.448;2023-04-24T11:51:23;2.72;;;1.17;;
60831;SDS011;46665;51.558;-0.448;2023-04-24T11:53:53;5.20;;;1.00;;
60831;SDS011;46665;51.558;-0.448;2023-04-24T11:56:23;1.75;;;0.82;;
60831;SDS011;46665;51.558;-0.448;2023-04-24T11:58:53;1.60;;;1.50;;
60831;SDS011;46665;51.558;-0.448;2023-04-24T12:01:19;1.55;;;1.05;;
60831;SDS011;46665;51.558;-0.448;2023-04-24T12:03:48;6.40;;;1.27;;
60831;SDS011;46665;51.558;-0.448;2023-04-24T12:06:15;3.60;;;1.92;;
60831;SDS011;46665;51.558;-0.448;2023-04-24T12:08:41;4.90;;;1.50;;
60831;SDS011;46665;51.558;-0.448;2023-04-24T12:11:11;4.20;;;1.20;;
60831;SDS011;46665;51.558;-0.448;2023-04-24T12:13:41;4.82;;;1.70;;
60831;SDS011;46665;51.558;-0.448;2023-04-24T12:16:06;2.30;;;1.23;;
60831;SDS011;46665;51.558;-0.448;2023-04-24T12:18:32;2.03;;;1.48;;
60831;SDS011;46665;51.558;-0.448;2023-04-24T12:23:53;2.08;;;1.35;;
60831;SDS011;46665;51.558;-0.448;2023-04-24T12:26:20;5.95;;;1.35;;
60831;SDS011;46665;51.558;-0.448;2023-04-24T12:28:48;2.90;;;1.15;;
60831;SDS011;46665;51.558;-0.448;2023-04-24T12:31:15;4.80;;;1.70;;
60831;SDS011;46665;51.558;-0.448;2023-04-24T12:33:41;2.75;;;0.90;;
60831;SDS011;46665;51.558;-0.448;2023-04-24T12:36:09;1.73;;;1.33;;
60831;SDS011;46665;51.558;-0.448;2023-04-24T12:38:35;3.47;;;1.15;;
60831;SDS011;46665;51.558;-0.448;2023-04-24T12:41:11;7.47;;;0.88;;
60831;SDS011;46665;51.558;-0.448;2023-04-24T12:43:38;2.13;;;1.40;;
60831;SDS011;46665;51.558;-0.448;2023-04-24T12:46:04;1.13;;;0.98;;
60831;SDS011;46665;51.558;-0.448;2023-04-24T12:48:30;0.90;;;0.90;;
60831;SDS011;46665;51.558;-0.448;2023-04-24T12:50:59;3.88;;;0.70;;
60831;SDS011;46665;51.558;-0.448;2023-04-24T12:53:28;0.70;;;0.63;;
60831;SDS011;46665;51.558;-0.448;2023-04-24T12:55:55;3.50;;;0.93;;
60831;SDS011;46665;51.558;-0.448;2023-04-24T12:58:21;1.55;;;1.08;;
60831;SDS011;46665;51.558;-0.448;2023-04-24T13:00:47;3.08;;;1.05;;
60831;SDS011;46665;51.558;-0.448;2023-04-24T13:03:12;1.38;;;1.00;;
60831;SDS011;46665;51.558;-0.448;2023-04-24T13:05:38;1.08;;;0.98;;
60831;SDS011;46665;51.558;-0.448;2023-04-24T13:08:04;1.63;;;1.05;;
60831;SDS011;46665;51.558;-0.448;2023-04-24T13:10:29;1.30;;;1.20;;
60831;SDS011;46665;51.558;-0.448;2023-04-24T13:12:55;1.20;;;1.10;;
60831;SDS011;46665;51.558;-0.448;2023-04-24T13:15:20;1.05;;;0.95;;
60831;SDS011;46665;51.558;-0.448;2023-04-24T13:17:45;10.15;;;1.50;;
60831;SDS011;46665;51.558;-0.448;2023-04-24T13:20:11;3.08;;;1.08;;
60831;SDS011;46665;51.558;-0.448;2023-04-24T13:22:36;1.27;;;1.17;;
60831;SDS011;46665;51.558;-0.448;2023-04-24T13:25:02;2.08;;;1.13;;
60831;SDS011;46665;51.558;-0.448;2023-04-24T13:27:28;1.92;;;1.00;;
60831;SDS011;46665;51.558;-0.448;2023-04-24T13:29:53;1.02;;;0.77;;
60831;SDS011;46665;51.558;-0.448;2023-04-24T13:32:19;4.47;;;1.42;;
60831;SDS011;46665;51.558;-0.448;2023-04-24T13:34:45;2.15;;;1.17;;
60831;SDS011;46665;51.558;-0.448;2023-04-24T13:37:11;1.75;;;0.90;;
60831;SDS011;46665;51.558;-0.448;2023-04-24T13:39:36;1.67;;;1.02;;
60831;SDS011;46665;51.558;-0.448;2023-04-24T13:42:02;1.67;;;1.15;;
60831;SDS011;46665;51.558;-0.448;2023-04-24T13:44:27;0.70;;;0.60;;
60831;SDS011;46665;51.558;-0.448;2023-04-24T13:46:53;2.17;;;0.98;;
60831;SDS011;46665;51.558;-0.448;2023-04-24T13:49:21;10.25;;;1.50;;
60831;SDS011;46665;51.558;-0.448;2023-04-24T13:51:49;0.98;;;0.82;;
60831;SDS011;46665;51.558;-0.448;2023-04-24T13:54:15;3.33;;;0.82;;
60831;SDS011;46665;51.558;-0.448;2023-04-24T13:56:41;1.25;;;1.10;;
60831;SDS011;46665;51.558;-0.448;2023-04-24T13:59:06;1.50;;;1.20;;
60831;SDS011;46665;51.558;-0.448;2023-04-24T14:01:32;2.75;;;0.77;;
60831;SDS011;46665;51.558;-0.448;2023-04-24T14:03:57;2.45;;;1.33;;
60831;SDS011;46665;51.558;-0.448;2023-04-24T14:06:23;1.08;;;0.85;;
60831;SDS011;46665;51.558;-0.448;2023-04-24T14:08:48;1.73;;;0.52;;
60831;SDS011;46665;51.558;-0.448;2023-04-24T14:11:15;4.72;;;1.20;;
60831;SDS011;46665;51.558;-0.448;2023-04-24T14:13:41;0.85;;;0.73;;
60831;SDS011;46665;51.558;-0.448;2023-04-24T14:16:08;2.47;;;0.70;;
60831;SDS011;46665;51.558;-0.448;2023-04-24T14:18:34;0.77;;;0.70;;
60831;SDS011;46665;51.558;-0.448;2023-04-24T14:21:01;2.75;;;0.98;;
60831;SDS011;46665;51.558;-0.448;2023-04-24T14:23:27;0.70;;;0.70;;
60831;SDS011;46665;51.558;-0.448;2023-04-24T14:25:52;1.55;;;0.82;;
60831;SDS011;46665;51.558;-0.448;2023-04-24T14:28:18;1.75;;;0.85;;
60831;SDS011;46665;51.558;-0.448;2023-04-24T14:30:45;2.00;;;1.40;;
60831;SDS011;46665;51.558;-0.448;2023-04-24T14:33:10;3.25;;;1.13;;
60831;SDS011;46665;51.558;-0.448;2023-04-24T14:35:37;1.10;;;1.00;;
60831;SDS011;46665;51.558;-0.448;2023-04-24T14:38:02;2.60;;;0.90;;